Novo Mesto, Slovenia
Current Conditions -  °F | °C
As of 9:00 PM on Sunday 21 Dec 2014 (Local Time) from LJCE Reporting Station
Clear Clear  
Wind Chill: 32°   Ceiling: Unl
Heat Index: 32°   Visibility: 6mi
Dew Point: 28°   Wind: 2mph
Humidity: 87%   Direction: 280°W
Pressure: 30.45"   Gusts: NA
Location:  45.81°N, 15.18°E
Report Text: LJCE 212000Z 28002KT CAVOK M00/M02 Q1031 RMK BLU
Loading
Personal Weather Stations






























Interactive Weather Map New forecast layout! Learn more

10-Day Weather Forecast

Advertisements
Track Severe Weather on mobile